Time;durP1;ratioP1;P1;durP2;ratioP2;P2;SDS_P1;SDS_P2;PMS_P1;PMS_P2;Temp;Humidity;BMP_temperature;BMP_pressure;BME280_temperature;BME280_humidity;BME280_pressure;Samples;Min_cycle;Max_cycle;Signal;HPM_P1;HPM_P2
2023/03/21 00:00:02;;;;;;;8.17;5.80;;;9.60;99.90;;;;;;5075063;28;20461;-58
2023/03/21 00:02:30;;;;;;;16.80;7.70;;;9.60;99.90;;;;;;5075567;28;20462;-53
2023/03/21 00:04:57;;;;;;;12.50;6.90;;;9.60;99.90;;;;;;5067443;28;20532;-55
2023/03/21 00:07:25;;;;;;;10.80;6.77;;;9.60;99.90;;;;;;5072682;28;20480;-55
2023/03/21 00:09:54;;;;;;;12.57;7.00;;;9.50;99.90;;;;;;5061650;28;20471;-59
2023/03/21 00:12:22;;;;;;;15.50;7.40;;;9.60;99.90;;;;;;5054536;28;20470;-57
2023/03/21 00:14:49;;;;;;;12.13;6.80;;;9.60;99.90;;;;;;5054405;28;20458;-56
2023/03/21 00:17:17;;;;;;;18.83;7.50;;;9.50;99.90;;;;;;5054135;28;20548;-53
2023/03/21 00:19:45;;;;;;;14.93;7.63;;;9.60;99.90;;;;;;5056824;28;20461;-57
2023/03/21 00:22:12;;;;;;;11.43;7.10;;;9.60;99.90;;;;;;5059809;28;20722;-59
2023/03/21 00:24:39;;;;;;;14.10;7.00;;;9.60;99.90;;;;;;5059859;28;20466;-57
2023/03/21 00:27:07;;;;;;;14.67;7.53;;;9.60;99.90;;;;;;5059787;28;20509;-55
2023/03/21 00:29:35;;;;;;;14.93;7.40;;;9.60;99.90;;;;;;5059665;28;20489;-55
2023/03/21 00:32:03;;;;;;;12.60;6.90;;;9.50;99.90;;;;;;5059770;28;20474;-56
2023/03/21 00:34:32;;;;;;;10.67;6.50;;;9.60;99.90;;;;;;5059678;28;20491;-56
2023/03/21 00:37:00;;;;;;;15.60;6.17;;;9.60;99.90;;;;;;5073132;28;20482;-59
2023/03/21 00:39:27;;;;;;;13.87;6.33;;;9.60;99.90;;;;;;5078155;28;20532;-57
2023/03/21 00:41:55;;;;;;;7.60;6.57;;;9.50;99.90;;;;;;5079559;28;20840;-55
2023/03/21 00:44:22;;;;;;;12.33;6.60;;;9.50;99.90;;;;;;5079522;28;20505;-59
2023/03/21 00:46:51;;;;;;;10.90;6.47;;;9.50;99.90;;;;;;5075077;28;20462;-55
2023/03/21 00:49:19;;;;;;;12.70;6.67;;;9.40;99.90;;;;;;5059089;28;20473;-52
2023/03/21 00:51:50;;;;;;;12.00;7.97;;;9.40;99.90;;;;;;5058567;28;20519;-56
2023/03/21 00:54:18;;;;;;;11.77;6.50;;;9.40;99.90;;;;;;5075882;28;20555;-56
2023/03/21 00:56:45;;;;;;;13.53;8.30;;;9.40;99.90;;;;;;5079523;28;20465;-53
2023/03/21 00:59:12;;;;;;;12.17;6.37;;;9.40;99.90;;;;;;5079314;28;20466;-57
2023/03/21 01:01:40;;;;;;;11.80;6.60;;;9.50;99.90;;;;;;5079544;28;20461;-58
2023/03/21 01:04:12;;;;;;;12.70;6.53;;;9.40;99.90;;;;;;5058361;28;20466;-57
2023/03/21 01:06:40;;;;;;;12.93;6.33;;;9.40;99.90;;;;;;5058603;28;20470;-56
2023/03/21 01:09:08;;;;;;;12.10;6.27;;;9.40;99.90;;;;;;5059493;28;20462;-57
2023/03/21 01:11:35;;;;;;;11.33;6.43;;;9.40;99.90;;;;;;5058294;28;20888;-58
2023/03/21 01:14:02;;;;;;;11.40;6.67;;;9.40;99.90;;;;;;5056340;28;20466;-59
2023/03/21 01:16:30;;;;;;;12.63;7.07;;;9.40;99.90;;;;;;5057914;28;20461;-58
2023/03/21 01:18:58;;;;;;;14.03;6.53;;;9.40;99.90;;;;;;5057438;28;20961;-58
2023/03/21 01:21:27;;;;;;;15.70;6.77;;;9.40;99.90;;;;;;5064950;28;20466;-55
2023/03/21 01:23:54;;;;;;;13.40;6.30;;;9.40;99.90;;;;;;5064029;28;20461;-59
2023/03/21 01:26:21;;;;;;;14.83;7.70;;;9.40;99.90;;;;;;5062120;28;20478;-55
2023/03/21 01:28:48;;;;;;;10.90;6.40;;;9.40;99.90;;;;;;5057759;28;20961;-59
2023/03/21 01:31:17;;;;;;;13.97;6.67;;;9.40;99.90;;;;;;5064206;28;20461;-58
2023/03/21 01:33:45;;;;;;;15.63;6.83;;;9.50;99.90;;;;;;5067146;28;20457;-59
2023/03/21 01:36:16;;;;;;;12.83;6.93;;;9.40;99.90;;;;;;5058028;28;20458;-58
2023/03/21 01:38:45;;;;;;;11.50;7.50;;;9.40;99.90;;;;;;5055338;28;20503;-58
2023/03/21 01:41:20;;;;;;;12.43;6.90;;;9.40;99.90;;;;;;5056666;28;20512;-58
2023/03/21 01:43:47;;;;;;;16.17;7.23;;;9.50;99.90;;;;;;5055443;28;20465;-59
2023/03/21 01:46:36;;;;;;;10.00;6.37;;;9.50;99.90;;;;;;5056626;28;20454;-58
2023/03/21 01:49:08;;;;;;;12.13;7.30;;;9.50;99.90;;;;;;5056948;28;20462;-55
2023/03/21 01:51:39;;;;;;;14.27;8.53;;;9.50;99.90;;;;;;5056752;28;20470;-58
2023/03/21 01:54:13;;;;;;;15.37;7.47;;;9.50;99.90;;;;;;5057746;28;20776;-59
2023/03/21 01:56:42;;;;;;;12.20;8.20;;;9.50;99.90;;;;;;5054639;28;20506;-59
2023/03/21 01:59:12;;;;;;;10.20;6.83;;;9.50;99.90;;;;;;5059287;28;20493;-58
2023/03/21 02:01:43;;;;;;;16.90;11.20;;;9.50;99.90;;;;;;5065703;28;20870;-56
2023/03/21 02:04:11;;;;;;;12.93;8.53;;;9.50;99.90;;;;;;5060672;28;20441;-56
2023/03/21 02:06:44;;;;;;;20.50;8.10;;;9.40;99.90;;;;;;5066678;28;20440;-58
2023/03/21 02:09:18;;;;;;;10.27;8.37;;;9.40;99.90;;;;;;5062080;28;20468;-57
2023/03/21 02:11:46;;;;;;;15.73;9.00;;;9.40;99.90;;;;;;5058364;28;20458;-55
2023/03/21 02:14:16;;;;;;;12.73;9.30;;;9.30;99.90;;;;;;5057283;28;20462;-57
2023/03/21 02:16:52;;;;;;;20.13;9.77;;;9.30;99.90;;;;;;5059088;28;20466;-58
2023/03/21 02:19:52;;;;;;;15.90;9.97;;;9.30;99.90;;;;;;5057849;28;20799;-57
2023/03/21 02:23:04;;;;;;;16.40;8.93;;;9.30;99.90;;;;;;5057773;28;20767;-57
2023/03/21 02:26:13;;;;;;;17.30;8.80;;;9.30;99.90;;;;;;4964470;28;20544;-57
2023/03/21 02:28:45;;;;;;;15.27;9.63;;;9.30;99.90;;;;;;5041706;28;20934;-56
2023/03/21 02:31:27;;;;;;;16.70;9.00;;;9.30;99.90;;;;;;5057159;28;20432;-59
2023/03/21 02:34:46;;;;;;;17.50;9.77;;;9.30;99.90;;;;;;5057731;28;20472;-57
2023/03/21 02:37:22;;;;;;;13.03;8.83;;;9.40;99.90;;;;;;5057724;28;20815;-58
2023/03/21 02:40:00;;;;;;;16.57;9.70;;;9.30;99.90;;;;;;5057278;28;20458;-58
2023/03/21 02:42:34;;;;;;;14.60;8.50;;;9.30;99.90;;;;;;5057148;28;20461;-59
2023/03/21 02:45:09;;;;;;;15.97;9.50;;;9.30;99.90;;;;;;5057413;28;20458;-56
2023/03/21 02:47:42;;;;;;;14.37;8.73;;;9.30;99.90;;;;;;5057196;28;20492;-57
2023/03/21 02:50:13;;;;;;;15.00;10.10;;;9.30;99.90;;;;;;5056443;28;20458;-53
2023/03/21 02:52:45;;;;;;;13.43;10.00;;;9.30;99.90;;;;;;5057055;28;20868;-58
2023/03/21 02:55:15;;;;;;;14.80;9.50;;;9.30;99.90;;;;;;5056567;28;20450;-56
2023/03/21 02:57:44;;;;;;;20.93;10.77;;;9.20;99.90;;;;;;5075981;28;20499;-56
2023/03/21 03:00:17;;;;;;;17.90;10.47;;;9.30;99.90;;;;;;5076820;28;20487;-57
2023/03/21 03:02:45;;;;;;;14.77;10.60;;;9.30;99.90;;;;;;5076660;28;20465;-53
2023/03/21 03:05:15;;;;;;;20.80;11.53;;;9.30;99.90;;;;;;5076687;28;20894;-59
2023/03/21 03:07:54;;;;;;;23.57;10.87;;;9.20;99.90;;;;;;5076847;28;20493;-54
2023/03/21 03:10:32;;;;;;;20.60;11.63;;;9.20;99.90;;;;;;5075148;28;20484;-59
2023/03/21 03:13:12;;;;;;;17.83;10.73;;;9.10;99.90;;;;;;5076746;28;20435;-58
2023/03/21 03:15:47;;;;;;;18.03;11.60;;;9.10;1.00;;;;;;5076869;28;20467;-59
2023/03/21 03:18:24;;;;;;;24.07;11.13;;;9.10;1.00;;;;;;5076653;28;20489;-56
2023/03/21 03:21:02;;;;;;;15.90;10.23;;;9.10;1.00;;;;;;5075561;28;20815;-58
2023/03/21 03:23:36;;;;;;;21.37;10.50;;;9.00;1.00;;;;;;5076738;28;20465;-56
2023/03/21 03:26:07;;;;;;;18.53;10.17;;;9.00;1.00;;;;;;5076698;28;20754;-54
2023/03/21 03:28:39;;;;;;;15.03;10.50;;;8.90;1.00;;;;;;5068205;28;20962;-54
2023/03/21 03:31:10;;;;;;;14.43;10.50;;;9.00;1.00;;;;;;5056603;28;20944;-53
2023/03/21 03:33:40;;;;;;;18.37;10.23;;;8.90;1.00;;;;;;5056605;28;20485;-53
2023/03/21 03:36:10;;;;;;;17.67;9.97;;;8.90;1.00;;;;;;5074574;28;20462;-54
2023/03/21 03:38:40;;;;;;;15.70;10.30;;;8.80;1.00;;;;;;5076465;28;20489;-58
2023/03/21 03:41:13;;;;;;;13.93;9.90;;;8.90;1.00;;;;;;5074254;28;20461;-57
2023/03/21 03:43:47;;;;;;;18.37;11.00;;;8.90;1.00;;;;;;5076534;28;20465;-52
2023/03/21 03:46:20;;;;;;;15.20;9.63;;;8.90;1.00;;;;;;5074130;28;20461;-57
2023/03/21 03:48:52;;;;;;;17.23;10.67;;;8.80;1.00;;;;;;5076340;28;20457;-55
2023/03/21 03:51:24;;;;;;;12.20;9.47;;;8.80;1.00;;;;;;5075227;28;20902;-56
2023/03/21 03:53:55;;;;;;;18.30;11.10;;;8.80;1.00;;;;;;5075519;28;20472;-54
2023/03/21 03:56:24;;;;;;;21.00;11.23;;;8.80;1.00;;;;;;5075962;28;20912;-56
2023/03/21 03:58:51;;;;;;;19.93;11.93;;;8.80;1.00;;;;;;5076237;28;20485;-59
2023/03/21 04:01:18;;;;;;;19.20;11.50;;;8.70;1.00;;;;;;5075928;28;20465;-56
2023/03/21 04:03:48;;;;;;;17.70;10.77;;;8.70;1.00;;;;;;5076728;28;20460;-53
2023/03/21 04:06:15;;;;;;;16.80;10.13;;;8.70;1.00;;;;;;5070575;28;20484;-57
2023/03/21 04:08:43;;;;;;;17.10;10.43;;;8.70;1.00;;;;;;5056816;28;20455;-56
2023/03/21 04:11:14;;;;;;;18.03;11.23;;;8.70;1.00;;;;;;5055593;28;20462;-56
2023/03/21 04:13:41;;;;;;;20.57;10.77;;;8.80;1.00;;;;;;5056491;28;20457;-59
2023/03/21 04:16:10;;;;;;;18.93;10.57;;;8.70;1.00;;;;;;5055877;28;20549;-57
2023/03/21 04:18:39;;;;;;;13.23;10.57;;;8.70;1.00;;;;;;5075678;28;20980;-56
2023/03/21 04:21:09;;;;;;;24.27;10.53;;;8.70;1.00;;;;;;5076067;28;20743;-58
2023/03/21 04:23:37;;;;;;;11.47;8.90;;;8.70;1.00;;;;;;5076477;28;20504;-59
2023/03/21 04:26:04;;;;;;;18.23;10.83;;;8.70;1.00;;;;;;5075924;28;20894;-56
2023/03/21 04:28:35;;;;;;;17.37;9.90;;;8.80;1.00;;;;;;5075314;28;20480;-59
2023/03/21 04:31:04;;;;;;;16.80;9.40;;;8.70;99.90;;;;;;5076014;28;20461;-58
2023/03/21 04:33:31;;;;;;;16.93;9.77;;;8.80;99.90;;;;;;5076062;28;20776;-59
2023/03/21 04:35:58;;;;;;;15.10;8.97;;;8.80;99.90;;;;;;5075629;28;20468;-57
2023/03/21 04:38:29;;;;;;;18.27;10.03;;;8.70;99.90;;;;;;5075965;28;20481;-57
2023/03/21 04:41:00;;;;;;;17.30;9.03;;;8.80;99.90;;;;;;5075958;28;20465;-56
2023/03/21 04:43:28;;;;;;;14.50;8.57;;;8.80;99.90;;;;;;5075342;28;20978;-59
2023/03/21 04:45:56;;;;;;;12.23;8.70;;;8.80;99.90;;;;;;5075592;28;20489;-59
2023/03/21 04:48:25;;;;;;;10.77;8.50;;;8.80;99.90;;;;;;5075426;28;20489;-58
2023/03/21 04:50:52;;;;;;;19.37;8.37;;;8.80;99.90;;;;;;5075086;28;20490;-58
2023/03/21 04:53:19;;;;;;;11.60;8.03;;;8.80;99.90;;;;;;5076180;28;20470;-59
2023/03/21 04:55:47;;;;;;;19.77;9.40;;;8.70;99.90;;;;;;5076162;28;20523;-59
2023/03/21 04:58:14;;;;;;;14.40;7.23;;;8.80;99.90;;;;;;5075262;28;20453;-56
2023/03/21 05:00:41;;;;;;;15.17;7.83;;;8.80;99.90;;;;;;5075842;28;20792;-56
2023/03/21 05:03:09;;;;;;;12.43;8.20;;;8.80;99.90;;;;;;5075677;28;20890;-56
2023/03/21 05:05:37;;;;;;;12.10;7.50;;;8.80;99.90;;;;;;5076051;28;20461;-58
2023/03/21 05:08:05;;;;;;;14.70;7.60;;;8.90;99.90;;;;;;5078589;28;20461;-59
2023/03/21 05:10:34;;;;;;;12.80;7.40;;;8.90;99.90;;;;;;5079068;28;20525;-57
2023/03/21 05:13:01;;;;;;;12.63;7.17;;;8.90;99.90;;;;;;5079306;28;20476;-52
2023/03/21 05:15:28;;;;;;;11.07;7.07;;;8.90;99.90;;;;;;5066676;28;20892;-59
2023/03/21 05:17:57;;;;;;;9.30;7.23;;;8.90;99.90;;;;;;5058955;28;20437;-57
2023/03/21 05:20:26;;;;;;;10.67;6.70;;;8.90;99.90;;;;;;5058525;28;20626;-58
2023/03/21 05:22:53;;;;;;;12.50;8.83;;;8.90;99.90;;;;;;5059210;28;20463;-56
2023/03/21 05:25:32;;;;;;;9.80;6.80;;;8.90;99.90;;;;;;5059186;28;20469;-56
2023/03/21 05:28:00;;;;;;;11.63;7.10;;;8.90;99.90;;;;;;5058721;28;20467;-57
2023/03/21 05:30:28;;;;;;;15.50;6.43;;;8.90;99.90;;;;;;5059109;28;20458;-55
2023/03/21 05:32:55;;;;;;;10.70;7.23;;;8.90;99.90;;;;;;5058417;28;20799;-59
2023/03/21 05:35:23;;;;;;;11.40;6.80;;;8.90;99.90;;;;;;5058950;28;20437;-57
2023/03/21 05:37:51;;;;;;;18.90;7.50;;;9.00;99.90;;;;;;5057999;28;20472;-57
2023/03/21 05:40:19;;;;;;;10.70;6.80;;;9.00;99.90;;;;;;5058098;28;20501;-59
2023/03/21 05:42:46;;;;;;;13.07;7.60;;;9.00;99.90;;;;;;5058369;28;20512;-56
2023/03/21 05:45:14;;;;;;;10.30;7.10;;;9.00;99.90;;;;;;5058452;28;20768;-54
2023/03/21 05:47:41;;;;;;;9.67;6.40;;;9.10;99.90;;;;;;5057847;28;20448;-56
2023/03/21 05:50:10;;;;;;;15.10;7.40;;;9.00;99.90;;;;;;5057174;28;20796;-59
2023/03/21 05:52:37;;;;;;;9.80;6.70;;;9.10;99.90;;;;;;5073633;28;20919;-58
2023/03/21 05:55:06;;;;;;;26.13;16.10;;;9.00;99.90;;;;;;5057997;28;20462;-57
2023/03/21 05:57:37;;;;;;;13.90;9.10;;;9.00;99.90;;;;;;5058030;28;20458;-58
2023/03/21 06:00:06;;;;;;;11.90;7.30;;;9.10;99.90;;;;;;5057514;28;20828;-59
2023/03/21 06:02:33;;;;;;;14.17;8.73;;;9.10;99.90;;;;;;5057504;28;20812;-56
2023/03/21 06:05:00;;;;;;;16.50;11.33;;;9.10;99.90;;;;;;5061399;28;20528;-55
2023/03/21 06:07:27;;;;;;;17.93;9.77;;;9.10;99.90;;;;;;5077846;28;20968;-59
2023/03/21 06:09:54;;;;;;;17.27;10.80;;;9.10;99.90;;;;;;5071389;28;20887;-55
2023/03/21 06:12:23;;;;;;;19.20;9.20;;;9.10;99.90;;;;;;5057275;28;20472;-59
2023/03/21 06:14:50;;;;;;;19.80;12.00;;;9.10;99.90;;;;;;5058411;28;20462;-59
2023/03/21 06:17:17;;;;;;;13.10;9.77;;;9.10;99.90;;;;;;5071418;28;20515;-57
2023/03/21 06:19:44;;;;;;;17.03;10.17;;;9.00;99.90;;;;;;5076695;28;20497;-56
2023/03/21 06:22:11;;;;;;;16.47;9.80;;;9.10;99.90;;;;;;5075588;28;20465;-59
2023/03/21 06:24:38;;;;;;;12.97;9.77;;;9.00;99.90;;;;;;5076354;28;20465;-58
2023/03/21 06:27:05;;;;;;;12.30;7.27;;;9.00;99.90;;;;;;5075095;28;20497;-60
2023/03/21 06:29:34;;;;;;;14.80;9.40;;;9.00;99.90;;;;;;5075195;28;20816;-60
2023/03/21 06:32:01;;;;;;;16.17;7.93;;;9.00;99.90;;;;;;5074543;28;20465;-58
2023/03/21 06:34:28;;;;;;;15.50;9.53;;;9.00;99.90;;;;;;5075872;28;20457;-58
2023/03/21 06:36:56;;;;;;;16.37;8.70;;;9.10;1.00;;;;;;5056325;28;20481;-58
2023/03/21 06:39:23;;;;;;;13.60;8.20;;;9.00;1.00;;;;;;5054848;28;20477;-58
2023/03/21 06:41:50;;;;;;;10.20;6.70;;;9.00;1.00;;;;;;5054012;28;20462;-55
2023/03/21 06:44:17;;;;;;;25.00;12.17;;;9.00;1.00;;;;;;5066074;28;20461;-59
2023/03/21 06:46:45;;;;;;;12.87;7.37;;;8.90;1.00;;;;;;5064832;28;20780;-60
2023/03/21 06:49:12;;;;;;;15.67;9.30;;;9.00;1.00;;;;;;5054844;28;20469;-61
2023/03/21 06:51:39;;;;;;;15.17;8.40;;;8.90;1.00;;;;;;5053749;28;20768;-61
2023/03/21 06:54:06;;;;;;;13.87;7.43;;;8.90;1.00;;;;;;5053415;28;20463;-63
2023/03/21 06:56:33;;;;;;;15.20;7.83;;;8.90;1.00;;;;;;5059604;28;20461;-62
2023/03/21 06:59:00;;;;;;;14.30;8.10;;;8.90;1.00;;;;;;5073203;28;20485;-62
2023/03/21 07:01:29;;;;;;;14.77;8.40;;;8.90;1.00;;;;;;5072790;28;20454;-62
2023/03/21 07:03:58;;;;;;;18.03;7.90;;;8.90;1.00;;;;;;5071361;28;20461;-61
2023/03/21 07:06:26;;;;;;;13.37;7.47;;;8.90;1.00;;;;;;5034494;28;20460;-62
2023/03/21 07:08:54;;;;;;;11.57;6.87;;;8.90;1.00;;;;;;5034499;28;20459;-63
2023/03/21 07:11:22;;;;;;;12.73;7.70;;;8.90;1.00;;;;;;5035067;28;20754;-63
2023/03/21 07:13:50;;;;;;;10.60;7.30;;;8.90;1.00;;;;;;5053839;28;20483;-63
2023/03/21 07:16:20;;;;;;;15.07;8.30;;;8.90;1.00;;;;;;5075134;28;20457;-63
2023/03/21 07:18:47;;;;;;;16.70;8.77;;;8.90;1.00;;;;;;5074893;28;20465;-63
2023/03/21 07:21:16;;;;;;;14.93;9.90;;;9.00;1.00;;;;;;5074533;28;20468;-63
2023/03/21 07:23:43;;;;;;;20.43;9.33;;;9.00;1.00;;;;;;5070959;28;20922;-64
2023/03/21 07:26:10;;;;;;;16.20;8.70;;;9.10;1.00;;;;;;5055313;28;20896;-63
2023/03/21 07:28:37;;;;;;;24.07;8.40;;;9.10;1.00;;;;;;5055211;28;20490;-65
2023/03/21 07:31:08;;;;;;;14.30;8.20;;;9.00;1.00;;;;;;5055999;28;20465;-64
2023/03/21 07:33:35;;;;;;;18.30;9.17;;;9.00;1.00;;;;;;5056568;28;20462;-64
2023/03/21 07:36:02;;;;;;;16.33;9.50;;;9.00;1.00;;;;;;5074806;28;20792;-64
2023/03/21 07:38:31;;;;;;;10.87;8.57;;;9.00;1.00;;;;;;5076206;28;20484;-65
2023/03/21 07:40:59;;;;;;;15.00;8.27;;;9.00;1.00;;;;;;5076630;28;20778;-64
2023/03/21 07:43:26;;;;;;;14.03;8.20;;;9.10;1.00;;;;;;5076412;28;20462;-64
2023/03/21 07:45:57;;;;;;;21.77;10.10;;;9.20;1.00;;;;;;5061774;28;20462;-63
2023/03/21 07:48:24;;;;;;;11.30;7.87;;;9.30;1.00;;;;;;5056230;28;20465;-64
2023/03/21 07:50:52;;;;;;;18.37;10.30;;;9.20;1.00;;;;;;5055958;28;20433;-64
2023/03/21 07:53:19;;;;;;;17.20;7.97;;;9.30;1.00;;;;;;5056321;28;20816;-64
2023/03/21 07:55:51;;;;;;;13.80;8.90;;;9.40;1.00;;;;;;5063502;28;20465;-64
2023/03/21 07:58:18;;;;;;;17.50;9.47;;;9.40;1.00;;;;;;5074884;28;20465;-63
2023/03/21 08:00:45;;;;;;;17.80;8.93;;;9.40;1.00;;;;;;5074850;28;20937;-63
2023/03/21 08:03:13;;;;;;;18.67;8.50;;;9.40;1.00;;;;;;5074841;28;20484;-63
2023/03/21 08:05:41;;;;;;;13.20;8.70;;;9.40;1.00;;;;;;5071603;28;20925;-64
2023/03/21 08:08:08;;;;;;;14.10;9.30;;;9.40;1.00;;;;;;5054169;28;20466;-64
2023/03/21 08:10:36;;;;;;;16.10;8.83;;;9.40;1.00;;;;;;5054483;28;20466;-64
2023/03/21 08:13:04;;;;;;;18.23;9.50;;;9.40;1.00;;;;;;5055439;28;20470;-64
2023/03/21 08:15:31;;;;;;;18.87;9.30;;;9.50;1.00;;;;;;5056184;28;20469;-64
2023/03/21 08:17:59;;;;;;;13.60;9.33;;;9.40;1.00;;;;;;5072012;28;20462;-64
2023/03/21 08:20:26;;;;;;;19.97;9.20;;;9.50;1.00;;;;;;5074008;28;20494;-64
2023/03/21 08:22:53;;;;;;;14.83;9.40;;;9.60;1.00;;;;;;5074703;28;20695;-64
2023/03/21 08:25:21;;;;;;;13.90;9.07;;;9.70;1.00;;;;;;5074593;28;20464;-64
2023/03/21 08:27:50;;;;;;;12.47;9.10;;;9.70;1.00;;;;;;5061549;28;20467;-63
2023/03/21 08:30:21;;;;;;;16.90;9.77;;;9.80;1.00;;;;;;5054510;28;20459;-64
2023/03/21 08:32:49;;;;;;;18.13;10.30;;;9.80;1.00;;;;;;5054869;28;20904;-64
2023/03/21 08:35:19;;;;;;;16.53;10.23;;;9.80;1.00;;;;;;5055972;28;20488;-63
2023/03/21 08:37:46;;;;;;;19.40;9.83;;;9.80;1.00;;;;;;5062953;28;20465;-64
2023/03/21 08:40:15;;;;;;;23.20;16.47;;;9.90;1.00;;;;;;5072601;28;20489;-63
2023/03/21 08:42:43;;;;;;;17.60;12.30;;;9.90;1.00;;;;;;5059965;28;20894;-63
2023/03/21 08:45:11;;;;;;;23.70;15.43;;;9.90;1.00;;;;;;5059587;28;20466;-63
2023/03/21 08:47:40;;;;;;;23.03;12.30;;;9.80;1.00;;;;;;5058921;28;20473;-64
2023/03/21 08:50:09;;;;;;;16.60;11.30;;;9.70;1.00;;;;;;5058587;28;20921;-63
2023/03/21 08:52:37;;;;;;;18.50;12.00;;;9.60;1.00;;;;;;5061425;28;20473;-63
2023/03/21 08:55:05;;;;;;;17.63;11.20;;;9.70;1.00;;;;;;5055874;28;20559;-60
2023/03/21 08:57:32;;;;;;;11.93;8.37;;;9.70;1.00;;;;;;5052357;28;20481;-57
2023/03/21 08:59:59;;;;;;;14.23;10.00;;;9.70;1.00;;;;;;5044272;28;20495;-61
2023/03/21 09:02:26;;;;;;;14.30;9.77;;;9.70;1.00;;;;;;5054327;28;20520;-60
2023/03/21 09:04:57;;;;;;;13.90;8.90;;;9.60;1.00;;;;;;5059309;28;20509;-61
2023/03/21 09:07:25;;;;;;;13.17;9.53;;;9.70;1.00;;;;;;5055266;28;20475;-60
2023/03/21 09:09:53;;;;;;;13.67;9.10;;;9.70;1.00;;;;;;5059885;28;20911;-61
2023/03/21 09:12:20;;;;;;;15.90;9.70;;;9.70;1.00;;;;;;5058132;28;20752;-60
2023/03/21 09:14:47;;;;;;;15.87;9.77;;;9.70;1.00;;;;;;5057245;28;20481;-60
2023/03/21 09:17:14;;;;;;;17.27;10.60;;;9.70;1.00;;;;;;5054612;28;20465;-61
2023/03/21 09:19:41;;;;;;;18.87;12.03;;;9.80;1.00;;;;;;5057605;28;20469;-60
2023/03/21 09:22:13;;;;;;;22.53;13.50;;;9.80;1.00;;;;;;5058910;28;20516;-61
2023/03/21 09:24:41;;;;;;;18.80;12.33;;;10.00;1.00;;;;;;5058086;28;20473;-61
2023/03/21 09:27:09;;;;;;;14.90;8.03;;;10.10;1.00;;;;;;5051877;28;20498;-59
2023/03/21 09:29:36;;;;;;;13.63;7.73;;;10.10;1.00;;;;;;5038364;28;20499;-61
2023/03/21 09:32:05;;;;;;;14.30;10.83;;;10.00;1.00;;;;;;5049383;28;20561;-61
2023/03/21 09:34:33;;;;;;;14.50;9.17;;;10.10;1.00;;;;;;5059552;28;20899;-61
2023/03/21 09:37:01;;;;;;;9.93;7.40;;;10.10;1.00;;;;;;5039486;28;20475;-60
2023/03/21 09:39:29;;;;;;;18.30;11.07;;;10.00;1.00;;;;;;5043909;28;20934;-61
2023/03/21 09:42:10;;;;;;;12.10;8.27;;;10.00;1.00;;;;;;5057288;28;20528;-61
2023/03/21 09:44:48;;;;;;;19.10;11.60;;;10.10;1.00;;;;;;5056095;28;20474;-60
2023/03/21 09:47:20;;;;;;;13.10;8.70;;;10.10;1.00;;;;;;5058510;28;20473;-64
2023/03/21 09:49:52;;;;;;;16.77;10.37;;;10.10;1.00;;;;;;5057803;28;20757;-62
2023/03/21 09:52:23;;;;;;;12.73;7.73;;;10.10;1.00;;;;;;5056937;28;20506;-63
2023/03/21 09:54:52;;;;;;;15.17;8.63;;;10.10;1.00;;;;;;5058449;28;20467;-65
2023/03/21 09:57:30;;;;;;;14.93;8.37;;;10.20;1.00;;;;;;5058531;28;20472;-63
2023/03/21 10:00:07;;;;;;;17.70;9.37;;;10.20;1.00;;;;;;5058134;28;20800;-64
2023/03/21 10:02:37;;;;;;;22.30;10.00;;;10.20;1.00;;;;;;5058306;28;20474;-65
2023/03/21 10:05:13;;;;;;;15.40;6.57;;;10.20;1.00;;;;;;5057726;28;20487;-64
2023/03/21 10:07:46;;;;;;;12.93;6.67;;;10.20;1.00;;;;;;5070084;28;20464;-66
2023/03/21 10:10:20;;;;;;;10.17;7.43;;;10.20;1.00;;;;;;5077865;28;20464;-65
2023/03/21 10:12:49;;;;;;;15.30;7.93;;;10.20;1.00;;;;;;5077574;28;20505;-65
2023/03/21 10:15:19;;;;;;;14.07;7.00;;;10.20;1.00;;;;;;5078110;28;20454;-66
2023/03/21 10:17:52;;;;;;;21.40;10.00;;;10.20;1.00;;;;;;5067781;28;20490;-64
2023/03/21 10:20:22;;;;;;;12.53;7.70;;;10.30;1.00;;;;;;5057260;28;20479;-66
2023/03/21 10:22:51;;;;;;;14.40;10.40;;;10.40;1.00;;;;;;5057570;28;20471;-64
2023/03/21 10:25:24;;;;;;;20.07;11.47;;;10.40;1.00;;;;;;5057953;28;20469;-65
2023/03/21 10:27:52;;;;;;;15.70;7.77;;;10.50;1.00;;;;;;5061627;28;20468;-64
2023/03/21 10:30:32;;;;;;;12.87;7.73;;;10.70;1.00;;;;;;5077522;28;20457;-64
2023/03/21 10:33:08;;;;;;;8.53;6.30;;;10.70;1.00;;;;;;5077540;28;20468;-66
2023/03/21 10:35:38;;;;;;;10.03;6.33;;;10.50;1.00;;;;;;5076944;28;20475;-64
2023/03/21 10:38:06;;;;;;;8.57;6.37;;;10.70;1.00;;;;;;5073901;28;20573;-65
2023/03/21 10:40:34;;;;;;;9.83;5.60;;;10.70;1.00;;;;;;5060771;28;20524;-64
2023/03/21 10:43:20;;;;;;;8.67;6.77;;;10.90;1.00;;;;;;5056892;28;20462;-64
2023/03/21 10:45:48;;;;;;;16.00;6.83;;;11.00;1.00;;;;;;5056978;28;20466;-65
2023/03/21 10:48:15;;;;;;;12.47;7.77;;;11.00;1.00;;;;;;5057226;28;20470;-64
2023/03/21 10:50:45;;;;;;;15.43;7.30;;;11.00;1.00;;;;;;5059618;28;20474;-64
2023/03/21 10:53:18;;;;;;;12.93;6.20;;;11.00;1.00;;;;;;5076562;28;20681;-65
2023/03/21 10:55:49;;;;;;;13.20;7.13;;;11.00;1.00;;;;;;5077888;28;20468;-66
2023/03/21 10:58:23;;;;;;;10.50;6.37;;;11.00;1.00;;;;;;5077197;28;20462;-65
2023/03/21 11:00:56;;;;;;;12.83;5.10;;;11.00;1.00;;;;;;5075573;28;20467;-65
2023/03/21 11:03:28;;;;;;;8.63;5.63;;;11.10;1.00;;;;;;5057047;28;20470;-66
2023/03/21 11:05:56;;;;;;;9.53;4.80;;;11.20;1.00;;;;;;5056831;28;20561;-66
2023/03/21 11:08:23;;;;;;;8.63;4.80;;;11.20;1.00;;;;;;5056739;28;20498;-65
2023/03/21 11:11:00;;;;;;;11.37;5.63;;;11.20;1.00;;;;;;5057126;28;20899;-65
2023/03/21 11:13:34;;;;;;;8.67;5.30;;;11.30;1.00;;;;;;5056512;28;20433;-65
2023/03/21 11:16:07;;;;;;;9.83;6.23;;;11.30;1.00;;;;;;5055955;28;20458;-64
2023/03/21 11:18:41;;;;;;;7.93;5.40;;;11.30;1.00;;;;;;5053936;28;20516;-65
2023/03/21 11:21:11;;;;;;;9.90;5.90;;;11.30;1.00;;;;;;5054809;28;20955;-64
2023/03/21 11:23:44;;;;;;;11.07;7.00;;;11.40;1.00;;;;;;5068468;28;20526;-65
2023/03/21 11:26:18;;;;;;;10.13;6.23;;;11.40;1.00;;;;;;5075406;28;20815;-63
2023/03/21 11:28:46;;;;;;;10.83;6.17;;;11.40;1.00;;;;;;5060058;28;20488;-62
2023/03/21 11:31:16;;;;;;;8.10;5.90;;;11.40;1.00;;;;;;5056521;28;20466;-62
2023/03/21 11:33:52;;;;;;;7.80;5.50;;;11.50;1.00;;;;;;5056374;28;20557;-60
2023/03/21 11:36:33;;;;;;;10.50;5.70;;;11.60;1.00;;;;;;5067926;28;20904;-63
2023/03/21 11:39:14;;;;;;;10.30;6.27;;;11.50;1.00;;;;;;5076413;28;20500;-62
2023/03/21 11:41:42;;;;;;;8.10;4.80;;;11.40;1.00;;;;;;5076754;28;20765;-63
2023/03/21 11:44:27;;;;;;;9.97;6.10;;;11.40;1.00;;;;;;5052075;28;20474;-60
2023/03/21 11:46:54;;;;;;;5.90;5.10;;;11.40;1.00;;;;;;5056350;28;20466;-61
2023/03/21 11:49:22;;;;;;;6.20;4.97;;;11.40;1.00;;;;;;5056227;28;20888;-61
2023/03/21 11:52:00;;;;;;;9.13;5.40;;;11.40;1.00;;;;;;5055204;28;20747;-61
2023/03/21 11:54:38;;;;;;;9.37;5.80;;;11.30;1.00;;;;;;5064735;28;20468;-60
2023/03/21 11:57:17;;;;;;;12.80;7.40;;;11.30;1.00;;;;;;5076277;28;20453;-61
2023/03/21 11:59:52;;;;;;;12.70;9.83;;;11.60;1.00;;;;;;5076239;28;20460;-62
2023/03/21 12:02:36;;;;;;;22.60;13.87;;;11.80;99.90;;;;;;5075954;28;20772;-62
2023/03/21 12:05:08;;;;;;;10.20;8.00;;;11.80;99.90;;;;;;5064249;28;20443;-62
2023/03/21 12:07:53;;;;;;;12.97;9.30;;;11.90;99.90;;;;;;5055706;28;20974;-62
2023/03/21 12:10:32;;;;;;;13.83;9.20;;;11.70;99.90;;;;;;5054405;28;20469;-61
2023/03/21 12:13:10;;;;;;;14.20;9.67;;;11.70;99.90;;;;;;5054626;28;20462;-63
2023/03/21 12:15:48;;;;;;;12.47;8.90;;;11.60;99.90;;;;;;5056673;28;20831;-63
2023/03/21 12:18:31;;;;;;;11.07;8.97;;;11.50;99.90;;;;;;5058591;28;20489;-61
2023/03/21 12:21:03;;;;;;;11.03;8.20;;;11.50;99.90;;;;;;5056953;28;20614;-57
2023/03/21 12:23:49;;;;;;;15.33;10.87;;;11.50;99.90;;;;;;5055731;28;20484;-60
2023/03/21 12:26:23;;;;;;;12.50;7.73;;;11.40;99.90;;;;;;5054896;28;20470;-57
2023/03/21 12:29:09;;;;;;;13.53;9.07;;;11.30;99.90;;;;;;5055566;28;20498;-63
2023/03/21 12:31:52;;;;;;;15.07;10.70;;;11.40;99.90;;;;;;5064509;28;20480;-64
2023/03/21 12:34:33;;;;;;;12.53;6.53;;;11.30;99.90;;;;;;5075592;28;20641;-63
2023/03/21 12:37:11;;;;;;;13.00;9.70;;;11.30;99.90;;;;;;5062785;28;20613;-63
2023/03/21 12:39:40;;;;;;;11.67;7.30;;;11.30;99.90;;;;;;5058062;28;20466;-63
2023/03/21 12:42:26;;;;;;;12.30;8.00;;;11.30;99.90;;;;;;5058730;28;20490;-64
2023/03/21 12:45:02;;;;;;;11.27;6.20;;;11.20;99.90;;;;;;5059423;28;20493;-64
2023/03/21 12:47:32;;;;;;;6.07;4.80;;;11.00;1.00;;;;;;5072707;28;20762;-65
2023/03/21 12:50:05;;;;;;;7.93;5.90;;;11.00;1.00;;;;;;5078732;28;20461;-64
2023/03/21 12:52:36;;;;;;;12.97;7.17;;;11.00;1.00;;;;;;5058675;28;20462;-65
2023/03/21 12:55:07;;;;;;;10.10;6.03;;;10.90;1.00;;;;;;5059450;28;20834;-63
2023/03/21 12:57:39;;;;;;;9.00;6.10;;;11.00;1.00;;;;;;5068642;28;20423;-61
2023/03/21 13:00:16;;;;;;;9.17;6.60;;;10.80;1.00;;;;;;5079573;28;20468;-62
2023/03/21 13:02:48;;;;;;;13.40;7.90;;;10.80;1.00;;;;;;5078675;28;20511;-62
2023/03/21 13:05:19;;;;;;;14.00;8.83;;;10.80;1.00;;;;;;5079355;28;20900;-64